Time;durP1;ratioP1;P1;durP2;ratioP2;P2;SDS_P1;SDS_P2;PMS_P1;PMS_P2;Temp;Humidity;BMP_temperature;BMP_pressure;BME280_temperature;BME280_humidity;BME280_pressure;Samples;Min_cycle;Max_cycle;Signal;HPM_P1;HPM_P2
2023/05/23 00:00:13;;;;;;;12.23;11.03;;;25.70;62.60;;;;;;5060634;28;20467;-69
2023/05/23 00:02:43;;;;;;;12.50;11.30;;;25.70;62.70;;;;;;5063279;28;20452;-70
2023/05/23 00:05:14;;;;;;;12.03;11.03;;;25.70;62.50;;;;;;5070888;28;20440;-70
2023/05/23 00:07:44;;;;;;;10.00;9.17;;;25.70;62.50;;;;;;5069943;28;20522;-70
2023/05/23 00:10:13;;;;;;;11.30;10.40;;;25.70;62.50;;;;;;5069939;28;21059;-70
2023/05/23 00:12:41;;;;;;;10.20;9.40;;;25.70;62.50;;;;;;5079341;28;21033;-70
2023/05/23 00:15:10;;;;;;;11.23;10.13;;;25.70;62.80;;;;;;5074356;28;20475;-70
2023/05/23 00:17:38;;;;;;;10.67;9.80;;;25.70;62.50;;;;;;5081215;28;20470;-69
2023/05/23 00:20:09;;;;;;;11.17;10.27;;;25.70;62.50;;;;;;5074155;28;20456;-70
2023/05/23 00:22:41;;;;;;;11.00;10.00;;;25.70;62.60;;;;;;5077542;28;20462;-70
2023/05/23 00:25:11;;;;;;;11.73;10.73;;;25.70;62.50;;;;;;5082011;28;20507;-70
2023/05/23 00:27:39;;;;;;;11.50;10.50;;;25.70;62.60;;;;;;5077334;28;20505;-70
2023/05/23 00:30:08;;;;;;;12.00;11.00;;;25.60;62.70;;;;;;5066001;28;20546;-69
2023/05/23 00:32:36;;;;;;;11.13;10.13;;;25.60;62.50;;;;;;5051942;28;20466;-70
2023/05/23 00:35:06;;;;;;;11.17;10.23;;;25.60;62.50;;;;;;5067193;28;20475;-70
2023/05/23 00:37:34;;;;;;;11.20;10.07;;;25.60;62.50;;;;;;5048159;28;20456;-70
2023/05/23 00:40:02;;;;;;;10.70;9.70;;;25.60;62.60;;;;;;5069812;28;20453;-70
2023/05/23 00:42:32;;;;;;;11.83;10.83;;;25.60;62.40;;;;;;5070407;28;20439;-69
2023/05/23 00:45:01;;;;;;;12.00;10.80;;;25.60;62.30;;;;;;5051892;28;20447;-69
2023/05/23 00:47:29;;;;;;;10.80;9.90;;;25.60;62.40;;;;;;5069928;28;21046;-69
2023/05/23 00:49:57;;;;;;;10.30;9.50;;;25.60;62.40;;;;;;5069944;28;20464;-70
2023/05/23 00:52:26;;;;;;;10.33;9.43;;;25.60;62.40;;;;;;5076314;28;21041;-70
2023/05/23 00:54:54;;;;;;;11.87;10.87;;;25.60;62.40;;;;;;5080593;28;20526;-69
2023/05/23 00:57:22;;;;;;;10.80;9.80;;;25.60;62.40;;;;;;5043112;28;20483;-69
2023/05/23 00:59:54;;;;;;;11.57;10.37;;;25.60;62.40;;;;;;5050935;28;20466;-71
2023/05/23 01:02:23;;;;;;;12.30;11.10;;;25.60;62.30;;;;;;5070224;28;20464;-69
2023/05/23 01:04:53;;;;;;;11.03;10.13;;;25.60;62.30;;;;;;5069916;28;20556;-71
2023/05/23 01:07:21;;;;;;;11.10;10.30;;;25.60;62.20;;;;;;5069159;28;20460;-70
2023/05/23 01:09:50;;;;;;;15.77;11.60;;;25.60;62.10;;;;;;5069116;28;20459;-71
2023/05/23 01:12:25;;;;;;;12.00;11.00;;;25.60;61.80;;;;;;5073983;28;20503;-69
2023/05/23 01:15:05;;;;;;;11.00;10.10;;;25.60;62.10;;;;;;5077136;28;20479;-70
2023/05/23 01:17:41;;;;;;;11.70;10.70;;;25.60;62.20;;;;;;5069334;28;20478;-70
2023/05/23 01:20:11;;;;;;;13.90;11.00;;;25.60;62.20;;;;;;5057964;28;20533;-69
2023/05/23 01:23:00;;;;;;;12.30;11.10;;;25.60;62.20;;;;;;5070146;28;20450;-70
2023/05/23 01:25:39;;;;;;;11.57;10.63;;;25.60;62.20;;;;;;5039789;28;20516;-69
2023/05/23 01:28:15;;;;;;;10.50;9.60;;;25.60;62.10;;;;;;5051580;28;20492;-70
2023/05/23 01:30:45;;;;;;;12.43;11.43;;;25.60;62.30;;;;;;5066938;28;20457;-69
2023/05/23 01:33:16;;;;;;;11.87;10.90;;;25.60;62.20;;;;;;5055215;28;20439;-70
2023/05/23 01:35:45;;;;;;;12.10;11.00;;;25.60;62.00;;;;;;5072466;28;20456;-70
2023/05/23 01:38:15;;;;;;;11.53;10.43;;;25.60;62.10;;;;;;5043261;28;20459;-70
2023/05/23 01:40:43;;;;;;;11.73;10.67;;;25.60;62.10;;;;;;5055739;28;21231;-70
2023/05/23 01:43:12;;;;;;;12.00;10.80;;;25.50;62.00;;;;;;5072458;28;20935;-70
2023/05/23 01:45:41;;;;;;;12.10;10.90;;;25.50;62.30;;;;;;5072761;28;20453;-69
2023/05/23 01:48:11;;;;;;;11.07;10.17;;;25.50;62.40;;;;;;5054893;28;20481;-70
2023/05/23 01:50:40;;;;;;;10.77;9.77;;;25.50;62.40;;;;;;5073054;28;20450;-70
2023/05/23 01:53:10;;;;;;;10.80;9.90;;;25.40;62.50;;;;;;5042184;28;20561;-70
2023/05/23 01:55:40;;;;;;;12.37;11.27;;;25.40;62.50;;;;;;5053837;28;20525;-69
2023/05/23 01:58:09;;;;;;;11.10;10.10;;;25.40;62.60;;;;;;5054738;28;20562;-69
2023/05/23 02:00:38;;;;;;;11.70;10.73;;;25.40;62.50;;;;;;5046880;28;20832;-69
2023/05/23 02:03:07;;;;;;;11.60;10.60;;;25.40;62.50;;;;;;5055368;28;20474;-69
2023/05/23 02:05:35;;;;;;;12.30;11.17;;;25.40;62.50;;;;;;5042646;28;20482;-69
2023/05/23 02:08:04;;;;;;;12.10;11.10;;;25.40;62.40;;;;;;5049304;28;20514;-69
2023/05/23 02:10:32;;;;;;;12.27;11.07;;;25.50;62.20;;;;;;5071947;28;20469;-69
2023/05/23 02:13:01;;;;;;;11.87;10.87;;;25.40;62.30;;;;;;5043639;28;20462;-69
2023/05/23 02:15:29;;;;;;;10.77;9.87;;;25.40;62.60;;;;;;5055766;28;20476;-70
2023/05/23 02:18:00;;;;;;;12.20;11.03;;;25.40;62.50;;;;;;5054244;28;20458;-68
2023/05/23 02:20:29;;;;;;;12.30;11.17;;;25.40;62.40;;;;;;5054797;28;20467;-69
2023/05/23 02:22:57;;;;;;;11.97;10.83;;;25.40;62.50;;;;;;5054600;28;20524;-69
2023/05/23 02:25:25;;;;;;;11.33;10.43;;;25.40;62.40;;;;;;5054270;28;20467;-69
2023/05/23 02:27:53;;;;;;;12.00;11.00;;;25.40;62.40;;;;;;5071344;28;21012;-69
2023/05/23 02:30:22;;;;;;;11.37;10.27;;;25.40;62.30;;;;;;5044974;28;20475;-69
2023/05/23 02:32:50;;;;;;;12.07;11.07;;;25.40;62.20;;;;;;5054027;28;20459;-69
2023/05/23 02:35:20;;;;;;;12.17;11.10;;;25.40;62.30;;;;;;5073658;28;20446;-69
2023/05/23 02:37:49;;;;;;;11.80;10.90;;;25.40;62.40;;;;;;5048350;28;20528;-69
2023/05/23 02:40:17;;;;;;;11.50;10.57;;;25.30;62.50;;;;;;5054654;28;20453;-69
2023/05/23 02:42:46;;;;;;;12.67;11.60;;;25.30;62.50;;;;;;5072513;28;20504;-69
2023/05/23 02:45:14;;;;;;;11.70;10.70;;;25.40;62.40;;;;;;5052381;28;20944;-69
2023/05/23 02:47:42;;;;;;;12.87;11.77;;;25.40;62.30;;;;;;5066899;28;20450;-69
2023/05/23 02:50:11;;;;;;;12.83;11.70;;;25.40;62.20;;;;;;5071767;28;20479;-69
2023/05/23 02:52:42;;;;;;;11.17;10.30;;;25.40;62.10;;;;;;5072315;28;20476;-69
2023/05/23 02:55:11;;;;;;;12.37;11.37;;;25.30;62.30;;;;;;5052497;28;20466;-71
2023/05/23 02:57:43;;;;;;;12.80;11.67;;;25.40;62.30;;;;;;5054623;28;20993;-69
2023/05/23 03:00:14;;;;;;;13.10;11.90;;;25.40;62.40;;;;;;5053366;28;20488;-69
2023/05/23 03:02:47;;;;;;;13.90;12.70;;;25.40;62.40;;;;;;5053740;28;20491;-69
2023/05/23 03:05:15;;;;;;;13.50;12.30;;;25.40;62.40;;;;;;5071891;28;20479;-70
2023/05/23 03:07:46;;;;;;;12.90;11.70;;;25.40;62.30;;;;;;5066373;28;20448;-70
2023/05/23 03:10:15;;;;;;;13.70;12.40;;;25.40;62.30;;;;;;5047383;28;20472;-70
2023/05/23 03:12:44;;;;;;;14.37;12.87;;;25.40;62.40;;;;;;5054261;28;20865;-69
2023/05/23 03:15:13;;;;;;;14.10;12.90;;;25.40;62.20;;;;;;5053153;28;20457;-69
2023/05/23 03:17:43;;;;;;;13.23;12.13;;;25.40;62.20;;;;;;5062299;28;20509;-68
2023/05/23 03:20:11;;;;;;;13.40;12.30;;;25.40;62.30;;;;;;5071373;28;20457;-69
2023/05/23 03:22:42;;;;;;;12.87;11.80;;;25.40;62.30;;;;;;5053444;28;20512;-70
2023/05/23 03:25:11;;;;;;;14.20;12.90;;;25.40;62.20;;;;;;5070927;28;20923;-69
2023/05/23 03:27:40;;;;;;;13.87;12.70;;;25.40;62.30;;;;;;5073177;28;20496;-70
2023/05/23 03:30:08;;;;;;;13.33;12.10;;;25.40;62.40;;;;;;5054210;28;20518;-69
2023/05/23 03:32:37;;;;;;;13.93;12.63;;;25.40;62.30;;;;;;5070225;28;20470;-70
2023/05/23 03:35:06;;;;;;;14.20;12.90;;;25.40;62.50;;;;;;5044311;28;20461;-70
2023/05/23 03:37:34;;;;;;;14.33;13.03;;;25.40;62.40;;;;;;5052593;28;20479;-69
2023/05/23 03:40:03;;;;;;;14.20;12.90;;;25.40;62.30;;;;;;5047074;28;20830;-69
2023/05/23 03:42:33;;;;;;;14.53;13.23;;;25.30;62.40;;;;;;5048556;28;20545;-69
2023/05/23 03:45:01;;;;;;;14.33;13.00;;;25.40;62.60;;;;;;5056024;28;20493;-69
2023/05/23 03:47:29;;;;;;;14.27;12.87;;;25.40;62.40;;;;;;5044849;28;20470;-69
2023/05/23 03:49:58;;;;;;;14.43;13.20;;;25.40;62.50;;;;;;5061854;28;20843;-70
2023/05/23 03:52:28;;;;;;;15.27;13.80;;;25.40;62.30;;;;;;5053937;28;20516;-69
2023/05/23 03:54:56;;;;;;;13.77;12.57;;;25.40;62.30;;;;;;5070747;28;20465;-69
2023/05/23 03:57:24;;;;;;;15.47;14.07;;;25.40;62.40;;;;;;5069136;28;20983;-70
2023/05/23 03:59:54;;;;;;;14.50;13.27;;;25.40;62.40;;;;;;5052885;28;20527;-69
2023/05/23 04:02:22;;;;;;;14.47;13.27;;;25.40;62.40;;;;;;5063483;28;20456;-69
2023/05/23 04:04:52;;;;;;;14.93;13.70;;;25.40;62.40;;;;;;5073683;28;20515;-69
2023/05/23 04:07:21;;;;;;;18.33;16.40;;;25.40;62.40;;;;;;5056819;28;20468;-69
2023/05/23 04:09:49;;;;;;;14.70;13.43;;;25.30;62.90;;;;;;5058118;28;21137;-71
2023/05/23 04:12:18;;;;;;;15.70;14.23;;;25.20;62.90;;;;;;5048148;28;20455;-69
2023/05/23 04:14:49;;;;;;;13.80;12.40;;;25.10;63.10;;;;;;5040419;28;20861;-70
2023/05/23 04:17:18;;;;;;;17.00;14.33;;;25.10;63.40;;;;;;5050506;28;20468;-69
2023/05/23 04:19:46;;;;;;;17.00;15.50;;;25.10;63.40;;;;;;5070500;28;20519;-70
2023/05/23 04:22:15;;;;;;;20.43;18.30;;;25.10;63.40;;;;;;5071292;28;20447;-70
2023/05/23 04:24:44;;;;;;;17.40;15.80;;;24.80;64.80;;;;;;5055159;28;20469;-71
2023/05/23 04:27:13;;;;;;;16.50;15.10;;;24.50;65.60;;;;;;5052117;28;20987;-69
2023/05/23 04:29:43;;;;;;;14.73;13.30;;;24.50;65.40;;;;;;5052477;28;20476;-70
2023/05/23 04:32:11;;;;;;;14.83;13.40;;;24.50;65.70;;;;;;5049466;28;20467;-71
2023/05/23 04:34:41;;;;;;;15.87;14.40;;;24.50;65.20;;;;;;5054001;28;20453;-70
2023/05/23 04:37:10;;;;;;;15.03;13.50;;;24.70;65.00;;;;;;5063243;28;20826;-72
2023/05/23 04:39:38;;;;;;;15.53;14.10;;;24.70;64.70;;;;;;5052861;28;20990;-70
2023/05/23 04:42:34;;;;;;;14.80;13.40;;;24.80;64.50;;;;;;5050229;28;20622;-71
2023/05/23 04:45:12;;;;;;;14.87;13.47;;;24.90;64.10;;;;;;5048157;28;21075;-71
2023/05/23 04:47:58;;;;;;;16.53;14.93;;;25.00;63.90;;;;;;5040892;28;20814;-70
2023/05/23 04:50:49;;;;;;;17.20;15.60;;;25.00;63.60;;;;;;5037582;28;20584;-70
2023/05/23 04:53:18;;;;;;;17.37;15.60;;;25.10;63.50;;;;;;5045211;28;20829;-71
2023/05/23 04:55:46;;;;;;;21.77;19.67;;;25.10;63.60;;;;;;5068017;28;20551;-70
2023/05/23 04:58:18;;;;;;;26.00;23.03;;;25.10;65.00;;;;;;5055025;28;20473;-69
2023/05/23 05:00:46;;;;;;;24.77;22.03;;;24.40;67.00;;;;;;5045013;28;20454;-69
2023/05/23 05:03:16;;;;;;;25.67;23.07;;;23.80;68.90;;;;;;5043976;28;21356;-69
2023/05/23 05:05:47;;;;;;;25.60;22.90;;;23.40;70.40;;;;;;5051070;28;20511;-68
2023/05/23 05:08:18;;;;;;;31.27;26.40;;;23.00;71.50;;;;;;5068507;28;20520;-70
2023/05/23 05:10:47;;;;;;;32.13;23.93;;;22.80;72.40;;;;;;5051375;28;20474;-70
2023/05/23 05:13:16;;;;;;;30.50;25.00;;;22.60;73.00;;;;;;5041687;28;20503;-71
2023/05/23 05:15:48;;;;;;;29.40;25.50;;;22.40;73.90;;;;;;5043084;28;20601;-70
2023/05/23 05:18:17;;;;;;;32.47;26.87;;;22.30;74.70;;;;;;5064897;28;20450;-71
2023/05/23 05:20:47;;;;;;;30.23;24.80;;;22.20;75.10;;;;;;5042000;28;21040;-70
2023/05/23 05:23:16;;;;;;;32.30;26.40;;;22.00;75.60;;;;;;5046291;28;21092;-71
2023/05/23 05:25:44;;;;;;;31.67;27.00;;;21.90;76.00;;;;;;5053072;28;20463;-71
2023/05/23 05:28:13;;;;;;;31.00;26.37;;;22.00;75.70;;;;;;5054758;28;20501;-71
2023/05/23 05:30:45;;;;;;;34.00;28.23;;;22.00;75.90;;;;;;5067396;28;20478;-71
2023/05/23 05:33:13;;;;;;;32.77;26.53;;;22.10;75.90;;;;;;5043499;28;20477;-70
2023/05/23 05:35:43;;;;;;;40.57;30.63;;;22.10;76.10;;;;;;5042816;28;20838;-71
2023/05/23 05:38:13;;;;;;;36.67;28.80;;;22.10;75.80;;;;;;5071633;28;20768;-71
2023/05/23 05:40:41;;;;;;;37.10;27.50;;;22.20;75.40;;;;;;5051885;28;20896;-71
2023/05/23 05:43:10;;;;;;;27.77;24.17;;;22.10;75.90;;;;;;5046930;28;20470;-71
2023/05/23 05:45:39;;;;;;;33.83;26.57;;;22.30;75.20;;;;;;5047921;28;20514;-71
2023/05/23 05:48:08;;;;;;;25.23;22.57;;;22.50;74.80;;;;;;5046643;28;21327;-71
2023/05/23 05:50:36;;;;;;;27.60;21.20;;;22.60;74.40;;;;;;5047036;28;20486;-71
2023/05/23 05:53:06;;;;;;;28.77;23.20;;;22.80;73.50;;;;;;5040043;28;20991;-71
2023/05/23 05:55:36;;;;;;;25.03;22.33;;;23.00;72.80;;;;;;5054929;28;20446;-72
2023/05/23 05:58:05;;;;;;;28.63;22.10;;;23.10;72.30;;;;;;5066413;28;20451;-71
2023/05/23 06:00:48;;;;;;;26.53;21.60;;;23.20;71.90;;;;;;5052635;28;20550;-71
2023/05/23 06:03:16;;;;;;;27.63;19.73;;;23.30;71.40;;;;;;5055701;28;20454;-71
2023/05/23 06:05:52;;;;;;;24.90;21.67;;;23.50;71.00;;;;;;5064420;28;20951;-71
2023/05/23 06:08:21;;;;;;;25.20;21.03;;;23.60;70.60;;;;;;5056993;28;20839;-71
2023/05/23 06:10:50;;;;;;;25.60;20.90;;;23.60;70.70;;;;;;5052868;28;20564;-71
2023/05/23 06:13:19;;;;;;;29.20;23.10;;;23.70;70.40;;;;;;5072217;28;20444;-71
2023/05/23 06:15:52;;;;;;;27.53;22.57;;;23.80;70.10;;;;;;5052817;28;20449;-71
2023/05/23 06:18:20;;;;;;;23.17;19.93;;;23.90;69.80;;;;;;5055009;28;20457;-71
2023/05/23 06:20:50;;;;;;;27.57;22.37;;;23.90;69.80;;;;;;5055141;28;20523;-71
2023/05/23 06:23:21;;;;;;;24.90;21.30;;;24.00;69.70;;;;;;5055996;28;20959;-71
2023/05/23 06:25:50;;;;;;;27.93;24.60;;;24.00;69.40;;;;;;5057466;28;20472;-71
2023/05/23 06:28:18;;;;;;;25.10;21.10;;;23.90;69.60;;;;;;5057094;28;20799;-71
2023/05/23 06:30:47;;;;;;;23.53;20.40;;;23.90;69.50;;;;;;5051947;28;20835;-70
2023/05/23 06:33:16;;;;;;;23.00;19.60;;;24.00;69.30;;;;;;5045052;28;20468;-70
2023/05/23 06:35:44;;;;;;;29.10;22.90;;;24.10;69.10;;;;;;5050109;28;20467;-70
2023/05/23 06:38:12;;;;;;;23.27;20.80;;;24.30;68.90;;;;;;5052537;28;20506;-70
2023/05/23 06:40:44;;;;;;;24.63;18.83;;;24.30;68.70;;;;;;5071145;28;20459;-70
2023/05/23 06:43:15;;;;;;;32.50;24.53;;;24.40;68.60;;;;;;5053426;28;20709;-70
2023/05/23 06:45:52;;;;;;;29.53;24.27;;;24.40;68.60;;;;;;5069961;28;20447;-70
2023/05/23 06:48:20;;;;;;;26.83;23.57;;;24.40;68.80;;;;;;5057839;28;20455;-69
2023/05/23 06:50:49;;;;;;;22.87;18.03;;;24.40;69.00;;;;;;5055173;28;20883;-69
2023/05/23 06:53:18;;;;;;;22.30;19.97;;;24.30;69.20;;;;;;5049307;28;20512;-70
2023/05/23 06:55:48;;;;;;;22.73;20.37;;;24.30;68.80;;;;;;5056669;28;20467;-69
2023/05/23 06:58:23;;;;;;;21.50;19.30;;;24.40;68.50;;;;;;5054929;28;20451;-71
2023/05/23 07:00:53;;;;;;;21.93;19.50;;;24.50;68.00;;;;;;5060085;28;20882;-70
2023/05/23 07:03:25;;;;;;;27.63;22.80;;;24.60;67.80;;;;;;5054674;28;20809;-70
2023/05/23 07:05:57;;;;;;;20.00;18.00;;;24.70;68.10;;;;;;5055096;28;20824;-68
2023/05/23 07:08:26;;;;;;;20.23;16.90;;;24.60;67.90;;;;;;5056560;28;20544;-67
2023/05/23 07:10:58;;;;;;;18.23;16.50;;;24.70;67.40;;;;;;5058475;28;20871;-67
2023/05/23 07:13:38;;;;;;;17.67;15.83;;;24.80;67.20;;;;;;5057104;28;20470;-67
2023/05/23 07:16:07;;;;;;;17.40;15.70;;;24.90;67.10;;;;;;5060235;28;20461;-67
2023/05/23 07:18:41;;;;;;;17.17;15.33;;;25.00;66.90;;;;;;5050530;28;20811;-68
2023/05/23 07:21:09;;;;;;;18.13;16.30;;;25.10;66.60;;;;;;5044751;28;20867;-67
2023/05/23 07:23:37;;;;;;;18.40;16.70;;;25.20;66.50;;;;;;5049818;28;21029;-68
2023/05/23 07:26:08;;;;;;;16.93;15.20;;;25.30;66.30;;;;;;5046944;28;20468;-68
2023/05/23 07:28:57;;;;;;;18.03;16.23;;;25.30;66.10;;;;;;5072923;28;20458;-68
2023/05/23 07:31:26;;;;;;;17.67;15.77;;;25.40;66.00;;;;;;5054289;28;20476;-67
2023/05/23 07:33:57;;;;;;;16.70;15.10;;;25.40;65.90;;;;;;5054265;28;20467;-68
2023/05/23 07:36:34;;;;;;;16.63;14.60;;;25.50;65.70;;;;;;5054111;28;20820;-67
2023/05/23 07:39:08;;;;;;;16.60;15.10;;;25.50;65.60;;;;;;5065125;28;20500;-67
2023/05/23 07:41:36;;;;;;;17.30;15.50;;;25.50;65.50;;;;;;5042783;28;20461;-67
2023/05/23 07:44:06;;;;;;;17.53;15.87;;;25.60;65.40;;;;;;5079330;28;20471;-67
2023/05/23 07:46:35;;;;;;;17.40;15.70;;;25.60;65.40;;;;;;5052756;28;20514;-68
2023/05/23 07:49:03;;;;;;;17.67;15.97;;;25.60;65.40;;;;;;5053451;28;20515;-67
2023/05/23 07:51:31;;;;;;;16.73;14.90;;;25.70;65.30;;;;;;5057508;28;20473;-67
2023/05/23 07:54:00;;;;;;;17.47;15.77;;;25.70;65.20;;;;;;5077432;28;20953;-68
2023/05/23 07:56:28;;;;;;;16.33;14.63;;;25.70;65.10;;;;;;5053169;28;20991;-67
2023/05/23 07:58:56;;;;;;;14.90;13.40;;;25.70;65.10;;;;;;5053753;28;20468;-67
2023/05/23 08:01:27;;;;;;;16.60;14.90;;;25.70;65.10;;;;;;5050353;28;20466;-68
2023/05/23 08:04:03;;;;;;;16.03;14.47;;;25.70;65.00;;;;;;5053042;28;20461;-68
2023/05/23 08:06:36;;;;;;;16.80;15.00;;;25.80;65.00;;;;;;5052323;28;20826;-67
2023/05/23 08:09:10;;;;;;;16.37;14.77;;;25.80;65.00;;;;;;5053285;28;20483;-68
2023/05/23 08:11:42;;;;;;;20.00;18.10;;;25.80;64.90;;;;;;5054466;28;20484;-67
2023/05/23 08:14:11;;;;;;;16.87;15.37;;;25.80;64.90;;;;;;5043417;28;20457;-68
2023/05/23 08:16:50;;;;;;;16.70;15.20;;;25.80;64.80;;;;;;5053371;28;20472;-68
2023/05/23 08:19:23;;;;;;;16.57;15.07;;;25.80;64.80;;;;;;5040252;28;20514;-67
2023/05/23 08:21:52;;;;;;;16.17;14.50;;;25.90;64.70;;;;;;5049281;28;20964;-68
2023/05/23 08:24:21;;;;;;;17.73;16.03;;;25.90;64.70;;;;;;5052057;28;21023;-68
2023/05/23 08:26:50;;;;;;;15.73;14.33;;;25.90;64.70;;;;;;5063618;28;20487;-68
2023/05/23 08:29:18;;;;;;;15.20;13.80;;;25.90;64.60;;;;;;5054472;28;20569;-68
2023/05/23 08:31:47;;;;;;;17.23;15.53;;;25.90;64.60;;;;;;5045413;28;20504;-69
2023/05/23 08:34:17;;;;;;;16.97;15.37;;;25.90;64.60;;;;;;5052418;28;20810;-68
2023/05/23 08:36:45;;;;;;;16.27;14.67;;;25.90;64.60;;;;;;5045421;28;20454;-67
2023/05/23 08:39:17;;;;;;;17.50;15.80;;;25.90;64.60;;;;;;5055863;28;20465;-67
2023/05/23 08:41:53;;;;;;;16.07;14.47;;;25.90;64.60;;;;;;5043451;28;20527;-67
2023/05/23 08:44:21;;;;;;;16.20;14.60;;;25.90;64.60;;;;;;5069635;28;20552;-68
2023/05/23 08:46:57;;;;;;;16.83;14.80;;;25.90;64.50;;;;;;5061596;28;20563;-67
2023/05/23 08:49:54;;;;;;;15.60;14.00;;;25.90;64.50;;;;;;5052940;28;20457;-66
2023/05/23 08:52:27;;;;;;;16.37;14.77;;;26.00;64.50;;;;;;5052001;28;21332;-68
2023/05/23 08:54:58;;;;;;;17.00;15.40;;;26.00;64.50;;;;;;5061272;28;20597;-67
2023/05/23 08:57:29;;;;;;;15.53;13.93;;;26.00;64.40;;;;;;5051557;28;20465;-66
2023/05/23 09:00:09;;;;;;;16.60;15.03;;;26.00;64.30;;;;;;5065618;28;20523;-66
2023/05/23 09:02:39;;;;;;;13.67;12.43;;;26.00;64.50;;;;;;5058369;28;21017;-66
2023/05/23 09:05:21;;;;;;;17.77;16.17;;;26.00;64.50;;;;;;5049255;28;20691;-66
2023/05/23 09:07:51;;;;;;;16.40;14.73;;;26.10;64.40;;;;;;5058380;28;20562;-66
2023/05/23 09:10:19;;;;;;;15.50;14.00;;;26.10;64.40;;;;;;5052430;28;20516;-66
2023/05/23 09:12:48;;;;;;;15.40;14.00;;;26.10;64.40;;;;;;5073388;28;20978;-67
2023/05/23 09:15:17;;;;;;;17.23;15.70;;;26.10;64.30;;;;;;5061790;28;20476;-66
2023/05/23 09:17:46;;;;;;;17.07;15.37;;;26.10;64.30;;;;;;5056541;28;20461;-66
2023/05/23 09:20:16;;;;;;;16.60;15.00;;;26.20;64.10;;;;;;5056091;28;20461;-66
2023/05/23 09:22:55;;;;;;;15.13;13.63;;;26.20;64.10;;;;;;5056198;28;20472;-66
2023/05/23 09:25:23;;;;;;;16.10;14.50;;;26.20;64.10;;;;;;5037145;28;20461;-66
2023/05/23 09:27:53;;;;;;;18.03;16.30;;;26.20;64.00;;;;;;5049514;28;20497;-66
2023/05/23 09:30:21;;;;;;;17.60;14.93;;;26.30;64.00;;;;;;5055984;28;20465;-66
2023/05/23 09:33:01;;;;;;;14.90;13.60;;;26.30;63.90;;;;;;5074292;28;20528;-66
2023/05/23 09:35:33;;;;;;;15.93;14.37;;;26.30;63.90;;;;;;5058758;28;20458;-67
2023/05/23 09:38:03;;;;;;;14.63;13.30;;;26.30;63.90;;;;;;5052896;28;20826;-67
2023/05/23 09:40:32;;;;;;;15.90;14.37;;;26.30;63.80;;;;;;5066349;28;20464;-67
2023/05/23 09:43:06;;;;;;;14.90;13.50;;;26.30;63.90;;;;;;5070909;28;20469;-67
2023/05/23 09:45:34;;;;;;;15.70;14.10;;;26.30;63.80;;;;;;5062292;28;20470;-66
2023/05/23 09:48:03;;;;;;;15.23;13.90;;;26.30;63.90;;;;;;5058072;28;20458;-66
2023/05/23 09:50:33;;;;;;;15.00;13.40;;;26.30;63.80;;;;;;5061629;28;20484;-66
2023/05/23 09:53:04;;;;;;;16.43;14.73;;;26.40;63.80;;;;;;5079840;28;21004;-66
2023/05/23 09:55:33;;;;;;;15.73;14.23;;;26.40;63.80;;;;;;5073524;28;20475;-66
2023/05/23 09:58:01;;;;;;;15.10;13.80;;;26.40;63.70;;;;;;5072200;28;20496;-66
2023/05/23 10:00:31;;;;;;;16.27;14.70;;;26.40;63.60;;;;;;5051669;28;20547;-66
2023/05/23 10:03:11;;;;;;;14.20;12.90;;;26.40;63.60;;;;;;5067341;28;20509;-66
2023/05/23 10:05:46;;;;;;;15.20;13.80;;;26.40;63.60;;;;;;5067669;28;20940;-66
2023/05/23 10:08:19;;;;;;;15.50;14.07;;;26.50;63.60;;;;;;5074526;28;20511;-66
2023/05/23 10:11:32;;;;;;;15.70;14.10;;;26.50;63.50;;;;;;5057489;28;20887;-66
2023/05/23 10:14:03;;;;;;;14.43;13.00;;;26.50;63.40;;;;;;5047587;28;20498;-66
2023/05/23 10:16:44;;;;;;;15.00;13.70;;;26.50;63.40;;;;;;5069355;28;20444;-66
2023/05/23 10:19:19;;;;;;;14.60;13.20;;;26.60;63.40;;;;;;5068773;28;20455;-67
2023/05/23 10:21:53;;;;;;;16.60;15.00;;;26.60;63.40;;;;;;5058586;28;20511;-68
2023/05/23 10:24:24;;;;;;;15.40;14.00;;;26.60;63.40;;;;;;5063423;28;21386;-66
2023/05/23 10:26:54;;;;;;;14.70;13.40;;;26.60;63.20;;;;;;5072063;28;20862;-67
2023/05/23 10:29:23;;;;;;;14.03;12.73;;;26.60;63.20;;;;;;5067936;28;20804;-68
2023/05/23 10:31:52;;;;;;;14.33;12.90;;;26.60;63.30;;;;;;5080969;28;20928;-67
2023/05/23 10:34:27;;;;;;;15.43;14.03;;;26.60;63.30;;;;;;5072028;28;20528;-67
2023/05/23 10:37:01;;;;;;;14.23;12.73;;;26.60;63.40;;;;;;5072045;28;20980;-67
2023/05/23 10:39:43;;;;;;;16.50;14.90;;;26.60;63.40;;;;;;5066913;28;20513;-68
2023/05/23 10:42:17;;;;;;;15.50;14.00;;;26.60;63.50;;;;;;5074628;28;20462;-67
2023/05/23 10:44:45;;;;;;;15.03;13.63;;;26.60;63.40;;;;;;5066690;28;21009;-66
2023/05/23 10:47:26;;;;;;;16.53;15.03;;;26.70;63.40;;;;;;5073123;28;20514;-67
2023/05/23 10:49:55;;;;;;;15.30;13.90;;;26.70;63.40;;;;;;5078405;28;20443;-67
2023/05/23 10:52:26;;;;;;;15.67;14.20;;;26.70;63.40;;;;;;5072801;28;20530;-68
2023/05/23 10:54:56;;;;;;;14.80;13.47;;;26.70;63.40;;;;;;5069754;28;20478;-67
2023/05/23 10:57:26;;;;;;;15.80;14.40;;;26.70;63.40;;;;;;5068841;28;20467;-68
2023/05/23 10:59:55;;;;;;;17.03;15.53;;;26.70;63.30;;;;;;5076659;28;20959;-68
2023/05/23 11:02:27;;;;;;;14.70;13.30;;;26.80;63.30;;;;;;5074741;28;20460;-67
2023/05/23 11:05:22;;;;;;;14.20;12.90;;;26.70;63.30;;;;;;5068188;28;20486;-67
2023/05/23 11:08:09;;;;;;;15.03;13.70;;;26.70;63.30;;;;;;5065010;28;20551;-68
2023/05/23 11:10:55;;;;;;;16.43;14.93;;;26.70;63.30;;;;;;5066841;28;20448;-68
2023/05/23 11:13:23;;;;;;;15.33;13.93;;;26.70;63.30;;;;;;5065083;28;20508;-67
2023/05/23 11:15:52;;;;;;;16.57;14.97;;;26.70;63.30;;;;;;5060691;28;20451;-67
2023/05/23 11:18:22;;;;;;;14.70;13.20;;;26.70;63.40;;;;;;5075232;28;20497;-68
2023/05/23 11:20:53;;;;;;;16.00;14.50;;;26.70;63.40;;;;;;5060308;28;20459;-67
2023/05/23 11:23:22;;;;;;;16.13;14.67;;;26.70;63.40;;;;;;5069535;28;20864;-67
2023/05/23 11:25:54;;;;;;;16.77;14.40;;;26.70;63.50;;;;;;5059130;28;20457;-68
2023/05/23 11:28:22;;;;;;;15.80;14.33;;;26.60;63.50;;;;;;5052896;28;20440;-67
2023/05/23 11:30:51;;;;;;;16.03;14.47;;;26.60;63.60;;;;;;5053738;28;20472;-69
2023/05/23 11:33:19;;;;;;;16.57;15.00;;;26.70;63.60;;;;;;5037548;28;21058;-67
2023/05/23 11:35:50;;;;;;;16.43;14.83;;;26.70;63.60;;;;;;5046454;28;20461;-68
2023/05/23 11:38:19;;;;;;;16.93;15.13;;;26.70;63.60;;;;;;5045670;28;20452;-67
2023/05/23 11:40:48;;;;;;;16.07;14.37;;;26.70;63.60;;;;;;5048155;28;21003;-67
2023/05/23 11:43:18;;;;;;;17.17;15.57;;;26.70;63.70;;;;;;5040414;28;20453;-67
2023/05/23 11:45:46;;;;;;;16.83;15.23;;;26.70;63.70;;;;;;5036202;28;20460;-68
2023/05/23 11:48:16;;;;;;;16.90;15.03;;;26.70;63.80;;;;;;5046923;28;20485;-67
2023/05/23 11:50:46;;;;;;;16.07;14.40;;;26.70;63.80;;;;;;5050104;28;20893;-66
2023/05/23 11:53:17;;;;;;;17.20;14.30;;;26.70;63.80;;;;;;5048816;28;20465;-69
2023/05/23 11:55:50;;;;;;;17.33;15.53;;;26.70;63.70;;;;;;5027386;28;20482;-68
2023/05/23 11:58:20;;;;;;;17.90;14.40;;;26.80;63.80;;;;;;5046833;28;20470;-70
2023/05/23 12:00:48;;;;;;;18.37;16.37;;;26.90;63.60;;;;;;5052115;28;20450;-68
2023/05/23 12:03:17;;;;;;;18.17;15.60;;;27.00;63.60;;;;;;5043421;28;20476;-68
2023/05/23 12:05:45;;;;;;;17.20;15.57;;;27.20;63.30;;;;;;5055877;28;21032;-68
2023/05/23 12:08:14;;;;;;;16.73;14.30;;;27.30;63.10;;;;;;5049142;28;20457;-71
2023/05/23 12:10:57;;;;;;;16.70;14.67;;;27.40;62.90;;;;;;5046485;28;20447;-68
2023/05/23 12:13:29;;;;;;;16.17;14.60;;;27.60;62.70;;;;;;5045242;28;20457;-68
2023/05/23 12:15:59;;;;;;;18.83;15.93;;;27.80;62.50;;;;;;5044887;28;20948;-67
2023/05/23 12:18:30;;;;;;;16.47;14.77;;;27.90;62.30;;;;;;5062718;28;20465;-67
2023/05/23 12:21:00;;;;;;;14.97;13.47;;;27.90;62.00;;;;;;5055901;28;20454;-69
2023/05/23 12:23:29;;;;;;;16.57;15.00;;;28.10;61.90;;;;;;5057391;28;20456;-69
2023/05/23 12:26:03;;;;;;;15.07;13.53;;;28.20;61.80;;;;;;5056194;28;20454;-69
2023/05/23 12:28:37;;;;;;;15.93;14.03;;;28.20;61.70;;;;;;5068187;28;20516;-69
2023/05/23 12:31:11;;;;;;;16.83;14.60;;;28.30;61.50;;;;;;5068954;28;20460;-68
2023/05/23 12:33:42;;;;;;;15.27;13.70;;;28.40;61.30;;;;;;5072126;28;20456;-69
2023/05/23 12:36:11;;;;;;;14.73;13.23;;;28.50;61.20;;;;;;5067748;28;20460;-69
2023/05/23 12:38:39;;;;;;;14.93;13.53;;;28.50;61.20;;;;;;5074838;28;20480;-69
2023/05/23 12:41:09;;;;;;;15.63;13.97;;;28.50;61.20;;;;;;5062380;28;20469;-67
2023/05/23 12:43:49;;;;;;;16.10;14.07;;;28.50;61.20;;;;;;5061933;28;20465;-68
2023/05/23 12:46:18;;;;;;;15.63;14.03;;;28.50;61.40;;;;;;5069749;28;20524;-67